Time;durP1;ratioP1;P1;durP2;ratioP2;P2;SDS_P1;SDS_P2;PMS_P1;PMS_P2;Temp;Humidity;BMP_temperature;BMP_pressure;BME280_temperature;BME280_humidity;BME280_pressure;Samples;Min_cycle;Max_cycle;Signal;HPM_P1;HPM_P2
2021/09/08 00:01:21;;;;;;;7.60;6.87;;;;;;;12.35;89.33;95935.41;5044221;28;20314;-69
2021/09/08 00:03:50;;;;;;;8.60;7.97;;;;;;;12.34;89.21;95930.25;5045073;28;20313;-69
2021/09/08 00:06:18;;;;;;;7.47;6.87;;;;;;;12.31;89.18;95934.13;5043746;28;20233;-69
2021/09/08 00:08:48;;;;;;;9.57;8.53;;;;;;;12.29;89.16;95924.72;5034460;28;20627;-69
2021/09/08 00:11:16;;;;;;;7.33;6.77;;;;;;;12.28;89.54;95925.75;5035041;28;20418;-68
2021/09/08 00:13:44;;;;;;;9.57;8.77;;;;;;;12.26;89.45;95928.59;5038117;28;20315;-69
2021/09/08 00:16:14;;;;;;;8.07;7.33;;;;;;;12.23;89.62;95921.00;5037795;28;20226;-69
2021/09/08 00:18:42;;;;;;;9.30;8.50;;;;;;;12.17;89.32;95922.59;5026965;28;20230;-69
2021/09/08 00:21:10;;;;;;;8.60;8.00;;;;;;;12.12;89.37;95911.72;5025351;28;20215;-70
2021/09/08 00:23:38;;;;;;;5.13;4.80;;;;;;;12.10;89.62;95907.66;5040489;28;20409;-69
2021/09/08 00:26:08;;;;;;;6.63;6.13;;;;;;;12.03;89.40;95907.56;5044103;28;20222;-69
2021/09/08 00:28:36;;;;;;;6.43;6.03;;;;;;;12.01;89.37;95901.66;5043058;28;20232;-69
2021/09/08 00:31:05;;;;;;;6.53;6.00;;;;;;;11.98;89.82;95902.03;5026181;28;20228;-69
2021/09/08 00:33:34;;;;;;;7.60;5.87;;;;;;;11.96;89.75;95901.38;5044347;28;20237;-69
2021/09/08 00:36:02;;;;;;;8.10;7.50;;;;;;;11.93;89.62;95901.75;5042004;28;20598;-68
2021/09/08 00:38:31;;;;;;;7.77;7.27;;;;;;;11.92;89.76;95900.94;5026138;28;20238;-69
2021/09/08 00:41:00;;;;;;;8.40;7.80;;;;;;;11.89;89.41;95900.50;5045828;28;20309;-69
2021/09/08 00:43:29;;;;;;;6.90;6.37;;;;;;;11.87;89.04;95899.84;5025140;28;20534;-69
2021/09/08 00:45:59;;;;;;;6.77;6.27;;;;;;;11.85;89.04;95904.50;5040497;28;20326;-70
2021/09/08 00:48:28;;;;;;;8.23;7.63;;;;;;;11.82;88.85;95892.47;5034117;28;20226;-69
2021/09/08 00:50:56;;;;;;;7.27;6.77;;;;;;;11.78;88.65;95887.69;5025818;28;20222;-69
2021/09/08 00:53:26;;;;;;;8.40;7.67;;;;;;;11.76;89.06;95900.28;5037695;28;20226;-69
2021/09/08 00:55:56;;;;;;;7.50;7.00;;;;;;;11.72;89.09;95889.28;5043868;28;20230;-69
2021/09/08 00:58:27;;;;;;;8.63;7.87;;;;;;;11.72;88.95;95893.75;5040958;28;20229;-70
2021/09/08 01:01:00;;;;;;;7.43;6.83;;;;;;;11.71;89.18;95892.13;5026176;28;20326;-69
2021/09/08 01:03:29;;;;;;;7.50;6.87;;;;;;;11.69;89.05;95887.81;5044296;28;20219;-69
2021/09/08 01:05:57;;;;;;;7.60;7.00;;;;;;;11.68;89.08;95893.28;5043280;28;20373;-69
2021/09/08 01:08:27;;;;;;;8.17;7.37;;;;;;;11.67;88.81;95892.47;5026063;28;20711;-68
2021/09/08 01:10:57;;;;;;;8.27;7.67;;;;;;;11.65;89.03;95899.75;5014806;28;20283;-68
2021/09/08 01:13:28;;;;;;;7.47;6.77;;;;;;;11.67;89.12;95897.75;5036750;28;20284;-69
2021/09/08 01:15:57;;;;;;;8.33;7.73;;;;;;;11.62;89.06;95884.28;5026527;28;20224;-68
2021/09/08 01:18:27;;;;;;;7.13;6.53;;;;;;;11.60;88.77;95880.97;5036180;28;20329;-68
2021/09/08 01:20:55;;;;;;;7.00;6.50;;;;;;;11.58;89.05;95882.19;5041098;28;20285;-69
2021/09/08 01:23:24;;;;;;;7.40;6.70;;;;;;;11.56;89.00;95885.00;5042412;28;20303;-69
2021/09/08 01:25:53;;;;;;;8.73;8.13;;;;;;;11.57;89.02;95881.38;5042270;28;20640;-69
2021/09/08 01:28:21;;;;;;;6.73;6.00;;;;;;;11.56;89.25;95869.16;5040836;28;20250;-69
2021/09/08 01:30:54;;;;;;;9.83;9.03;;;;;;;11.57;89.40;95881.38;5043550;28;20762;-69
2021/09/08 01:33:22;;;;;;;9.67;8.93;;;;;;;11.52;89.49;95878.47;5047483;28;20574;-70
2021/09/08 01:35:51;;;;;;;8.13;7.40;;;;;;;11.49;89.29;95870.88;5046432;28;20247;-69
2021/09/08 01:38:19;;;;;;;7.67;7.20;;;;;;;11.47;89.26;95875.53;5047032;28;20301;-69
2021/09/08 01:40:48;;;;;;;8.23;7.63;;;;;;;11.45;89.21;95877.56;5047458;28;20230;-69
2021/09/08 01:43:22;;;;;;;8.93;8.13;;;;;;;11.45;89.21;95877.56;5042368;28;20221;-68
2021/09/08 01:45:51;;;;;;;8.30;7.70;;;;;;;11.44;89.01;95870.63;5042983;28;22458;-68
2021/09/08 01:48:20;;;;;;;7.40;6.90;;;;;;;11.43;89.08;95866.34;5036896;28;20260;-69
2021/09/08 01:50:49;;;;;;;6.93;6.43;;;;;;;11.40;88.86;95870.16;5027639;28;20234;-69
2021/09/08 01:53:17;;;;;;;9.23;8.33;;;;;;;11.40;89.09;95862.25;5027779;28;20305;-68
2021/09/08 01:55:46;;;;;;;10.33;9.53;;;;;;;11.40;89.17;95858.78;5043815;28;20265;-69
2021/09/08 01:58:15;;;;;;;8.00;7.50;;;;;;;11.40;89.36;95864.06;5043813;28;20664;-69
2021/09/08 02:00:44;;;;;;;8.63;7.93;;;;;;;11.38;89.37;95868.72;5044223;28;20333;-69
2021/09/08 02:03:12;;;;;;;10.17;9.27;;;;;;;11.30;89.69;95866.16;5045666;28;20287;-70
2021/09/08 02:05:41;;;;;;;10.73;9.83;;;;;;;11.29;89.62;95861.91;5044748;28;20226;-69
2021/09/08 02:08:10;;;;;;;9.03;8.33;;;;;;;11.27;89.60;95863.91;5045678;28;20288;-69
2021/09/08 02:10:37;;;;;;;8.60;7.90;;;;;;;11.25;89.63;95865.91;5044393;28;20333;-69
2021/09/08 02:13:06;;;;;;;8.03;7.33;;;;;;;11.22;89.93;95858.34;5028041;28;20227;-69
2021/09/08 02:15:35;;;;;;;8.53;7.87;;;;;;;11.20;89.61;95861.16;5042011;28;20734;-69
2021/09/08 02:18:03;;;;;;;9.67;8.87;;;;;;;11.19;89.75;95861.34;5026211;28;20229;-69
2021/09/08 02:20:32;;;;;;;9.90;9.00;;;;;;;11.17;89.72;95858.09;5045643;28;20579;-68
2021/09/08 02:23:00;;;;;;;9.60;8.87;;;;;;;11.14;89.70;95853.16;5040166;28;20770;-69
2021/09/08 02:25:28;;;;;;;10.13;9.43;;;;;;;11.11;89.84;95855.16;5043809;28;20313;-69
2021/09/08 02:27:56;;;;;;;9.77;8.97;;;;;;;11.09;90.02;95854.53;5044994;28;20225;-68
2021/09/08 02:30:24;;;;;;;7.77;7.17;;;;;;;11.06;89.79;95849.63;5040298;28;20225;-69
2021/09/08 02:32:53;;;;;;;9.07;8.37;;;;;;;11.05;89.87;95850.59;5045478;28;20318;-69
2021/09/08 02:35:21;;;;;;;10.33;9.47;;;;;;;11.02;90.01;95845.69;5044689;28;20707;-69
2021/09/08 02:37:50;;;;;;;9.07;8.30;;;;;;;11.04;89.95;95833.09;5026292;28;20221;-69
2021/09/08 02:40:17;;;;;;;10.60;9.80;;;;;;;11.07;89.90;95837.22;5045527;28;20306;-69
2021/09/08 02:42:45;;;;;;;8.43;7.77;;;;;;;11.05;90.00;95837.38;5040401;28;20238;-69
2021/09/08 02:45:14;;;;;;;12.13;11.03;;;;;;;11.05;89.68;95840.03;5044482;28;20306;-69
2021/09/08 02:47:41;;;;;;;12.63;11.53;;;;;;;11.04;89.67;95830.47;5039162;28;20294;-69
2021/09/08 02:50:11;;;;;;;11.80;10.77;;;;;;;11.03;90.02;95836.75;5026032;28;20273;-69
2021/09/08 02:52:40;;;;;;;11.07;10.07;;;;;;;11.02;89.96;95835.13;5034834;28;20296;-69
2021/09/08 02:55:09;;;;;;;12.97;11.87;;;;;;;10.99;90.01;95824.94;5045717;28;20321;-69
2021/09/08 02:57:37;;;;;;;11.23;10.23;;;;;;;10.97;89.96;95826.94;5042911;28;20229;-69
2021/09/08 03:00:06;;;;;;;11.20;10.33;;;;;;;10.94;89.84;95827.28;5037202;28;20245;-68
2021/09/08 03:02:35;;;;;;;13.63;12.53;;;;;;;10.93;89.85;95830.94;5041233;28;20229;-71
2021/09/08 03:05:04;;;;;;;13.30;12.10;;;;;;;10.91;90.05;95827.66;5039974;28;20259;-68
2021/09/08 03:07:34;;;;;;;12.93;11.83;;;;;;;10.90;90.07;95835.75;5036681;28;20253;-68
2021/09/08 03:10:05;;;;;;;14.33;13.17;;;;;;;10.88;90.15;95828.03;5026679;28;20234;-69
2021/09/08 03:12:33;;;;;;;11.03;10.20;;;;;;;10.86;90.18;95827.38;5041609;28;20281;-68
2021/09/08 03:15:01;;;;;;;12.03;10.87;;;;;;;10.86;90.35;95824.72;5029668;28;20233;-68
2021/09/08 03:17:30;;;;;;;12.43;11.10;;;;;;;10.81;90.20;95832.38;5037138;28;20300;-69
2021/09/08 03:19:59;;;;;;;13.47;12.13;;;;;;;10.78;90.41;95824.81;5044533;28;20221;-69
2021/09/08 03:22:26;;;;;;;11.87;10.87;;;;;;;10.76;90.45;95824.19;5044921;28;20248;-68
2021/09/08 03:24:55;;;;;;;12.10;11.10;;;;;;;10.75;90.58;95822.53;5030394;28;20320;-69
2021/09/08 03:27:23;;;;;;;12.13;10.93;;;;;;;10.74;90.53;95826.19;5045614;28;21771;-69
2021/09/08 03:29:51;;;;;;;13.27;12.23;;;;;;;10.72;90.77;95825.56;5042810;28;20688;-69
2021/09/08 03:32:19;;;;;;;10.73;9.83;;;;;;;10.70;90.66;95824.91;5039402;28;20218;-69
2021/09/08 03:34:48;;;;;;;11.90;10.90;;;;;;;10.68;90.71;95833.00;5020934;28;20241;-69
2021/09/08 03:37:16;;;;;;;12.03;11.13;;;;;;;10.67;90.81;95825.25;5044427;28;20210;-68
2021/09/08 03:39:44;;;;;;;11.97;10.83;;;;;;;10.67;90.90;95825.25;5046612;28;20840;-68
2021/09/08 03:42:14;;;;;;;12.13;11.03;;;;;;;10.66;91.36;95823.63;5045907;28;20641;-69
2021/09/08 03:44:42;;;;;;;13.70;12.43;;;;;;;10.67;91.20;95820.78;5036435;28;20291;-69
2021/09/08 03:47:11;;;;;;;12.50;11.40;;;;;;;10.69;91.48;95824.06;5038138;28;20237;-68
2021/09/08 03:49:39;;;;;;;11.87;10.63;;;;;;;10.67;91.42;95818.16;5034280;28;20281;-69
2021/09/08 03:52:07;;;;;;;11.73;10.73;;;;;;;10.68;91.37;95813.69;5045234;28;20229;-69
2021/09/08 03:54:36;;;;;;;12.23;11.17;;;;;;;10.64;90.95;95820.34;5018430;28;20557;-69
2021/09/08 03:57:04;;;;;;;11.90;10.90;;;;;;;10.62;91.15;95811.81;5043478;28;20216;-69
2021/09/08 03:59:34;;;;;;;11.37;10.27;;;;;;;10.60;91.08;95821.69;5034364;28;20242;-69
2021/09/08 04:02:03;;;;;;;12.60;11.60;;;;;;;10.58;91.15;95813.13;5030512;28;20687;-69
2021/09/08 04:04:32;;;;;;;11.10;10.10;;;;;;;10.54;91.41;95810.88;5024992;28;20313;-69
2021/09/08 04:07:02;;;;;;;10.77;9.87;;;;;;;10.51;91.06;95810.41;5044388;28;20866;-69
2021/09/08 04:09:32;;;;;;;10.70;9.83;;;;;;;10.47;91.12;95804.66;5027435;28;20695;-68
2021/09/08 04:12:00;;;;;;;11.93;10.80;;;;;;;10.47;91.10;95809.94;5022434;28;20232;-69
2021/09/08 04:14:28;;;;;;;9.93;9.13;;;;;;;10.45;90.76;95811.94;5042656;28;20508;-69
2021/09/08 04:16:58;;;;;;;18.57;12.40;;;;;;;10.44;90.81;95810.31;5041309;28;20304;-69
2021/09/08 04:19:26;;;;;;;12.43;11.43;;;;;;;10.41;90.77;95808.00;5019704;28;20796;-69
2021/09/08 04:21:54;;;;;;;10.63;9.77;;;;;;;10.36;90.85;95806.94;5041770;28;20219;-68
2021/09/08 04:24:22;;;;;;;11.47;10.53;;;;;;;10.31;90.73;95812.72;5041526;28;20699;-68
2021/09/08 04:26:49;;;;;;;10.27;9.47;;;;;;;10.27;91.06;95808.81;5044517;28;20248;-67
2021/09/08 04:29:17;;;;;;;10.43;9.53;;;;;;;10.25;90.76;95803.72;5037639;28;20798;-67
2021/09/08 04:31:45;;;;;;;11.33;10.53;;;;;;;10.25;90.80;95810.81;5039101;28;20844;-67
2021/09/08 04:34:15;;;;;;;11.93;10.93;;;;;;;10.26;90.60;95807.19;5042791;28;20767;-67
2021/09/08 04:36:43;;;;;;;12.50;11.27;;;;;;;10.24;90.65;95810.00;5042349;28;20222;-67
2021/09/08 04:39:11;;;;;;;12.70;11.47;;;;;;;10.23;90.89;95802.25;5034139;28;20225;-67
2021/09/08 04:41:40;;;;;;;12.63;11.43;;;;;;;10.20;90.70;95802.56;5044369;28;20271;-67
2021/09/08 04:44:08;;;;;;;13.13;12.00;;;;;;;10.19;90.44;95806.22;5037816;28;20302;-67
2021/09/08 04:46:36;;;;;;;11.33;10.40;;;;;;;10.19;90.39;95804.41;5041704;28;20290;-67
2021/09/08 04:49:04;;;;;;;10.63;9.73;;;;;;;10.19;90.48;95807.03;5037213;28;20224;-67
2021/09/08 04:51:34;;;;;;;10.83;9.90;;;;;;;10.20;90.47;95813.13;5042636;28;20234;-67
2021/09/08 04:54:02;;;;;;;10.40;9.57;;;;;;;10.22;90.76;95811.97;5044302;28;20301;-67
2021/09/08 04:56:30;;;;;;;11.47;10.47;;;;;;;10.24;90.74;95809.16;5041555;28;20310;-67
2021/09/08 04:58:58;;;;;;;9.93;9.10;;;;;;;10.28;90.74;95815.72;5016586;28;20241;-67
2021/09/08 05:01:26;;;;;;;12.20;11.07;;;;;;;10.29;90.86;95806.81;5043740;28;20314;-67
2021/09/08 05:03:55;;;;;;;12.10;10.90;;;;;;;10.32;90.96;95806.44;5039816;28;20280;-67
2021/09/08 05:06:22;;;;;;;12.03;10.90;;;;;;;10.34;90.46;95807.13;5036483;28;20581;-67
2021/09/08 05:08:52;;;;;;;13.33;10.93;;;;;;;10.40;90.89;95811.66;5041447;28;20777;-67
2021/09/08 05:11:19;;;;;;;10.73;9.80;;;;;;;10.45;90.80;95811.94;5032319;28;20321;-67
2021/09/08 05:13:48;;;;;;;11.97;10.80;;;;;;;10.50;90.53;95814.03;5045018;28;20279;-66
2021/09/08 05:16:16;;;;;;;12.33;9.27;;;;;;;10.54;90.50;95805.59;5050318;28;20299;-66
2021/09/08 05:18:44;;;;;;;12.23;9.37;;;;;;;10.59;89.93;95809.50;5048667;28;20275;-67
2021/09/08 05:21:12;;;;;;;6.37;5.97;;;;;;;10.62;89.89;95795.97;5045042;28;20222;-66
2021/09/08 05:23:40;;;;;;;8.23;7.60;;;;;;;10.69;89.50;95807.41;5043025;28;20221;-67
2021/09/08 05:26:13;;;;;;;7.43;6.93;;;;;;;10.73;89.22;95808.72;5050730;28;20224;-67
2021/09/08 05:28:41;;;;;;;9.30;8.60;;;;;;;10.81;89.01;95808.63;5046123;28;20308;-67
2021/09/08 05:31:10;;;;;;;7.83;7.23;;;;;;;10.90;88.48;95810.19;5047198;28;20310;-67
2021/09/08 05:33:38;;;;;;;7.47;6.93;;;;;;;10.97;88.43;95805.81;5049128;28;20233;-67
2021/09/08 05:36:06;;;;;;;7.50;7.00;;;;;;;11.07;88.08;95811.63;5029778;28;20273;-67
2021/09/08 05:38:35;;;;;;;10.63;9.83;;;;;;;11.18;88.53;95806.88;5045285;28;20668;-67
2021/09/08 05:41:05;;;;;;;9.70;8.80;;;;;;;11.28;88.22;95808.25;5045442;28;20240;-67
2021/09/08 05:43:35;;;;;;;9.87;8.97;;;;;;;11.38;87.81;95807.94;5044594;28;20236;-67
2021/09/08 05:46:04;;;;;;;8.77;8.07;;;;;;;11.47;87.83;95809.47;5042259;28;20229;-67
2021/09/08 05:48:33;;;;;;;7.50;6.90;;;;;;;11.53;87.54;95811.38;5022177;28;20233;-67
2021/09/08 05:51:02;;;;;;;7.47;6.87;;;;;;;11.63;87.34;95811.91;5038002;28;20281;-66
2021/09/08 05:53:30;;;;;;;7.60;7.10;;;;;;;11.72;86.93;95809.97;5036265;28;20226;-66
2021/09/08 05:55:58;;;;;;;7.40;6.90;;;;;;;11.83;86.98;95813.97;5050014;28;20253;-67
2021/09/08 05:58:27;;;;;;;7.63;7.13;;;;;;;11.91;86.61;95813.84;5045908;28;20247;-67
2021/09/08 06:00:56;;;;;;;10.67;9.80;;;;;;;12.02;86.27;95821.28;5045616;28;20767;-67
2021/09/08 06:03:24;;;;;;;9.43;8.57;;;;;;;12.10;86.08;95818.53;5048273;28;20229;-67
2021/09/08 06:05:53;;;;;;;11.07;10.03;;;;;;;12.18;86.36;95815.75;5047485;28;20661;-67
2021/09/08 06:08:21;;;;;;;9.57;8.77;;;;;;;12.23;86.20;95818.63;5031370;28;20875;-67
2021/09/08 06:10:50;;;;;;;9.70;9.00;;;;;;;12.30;86.15;95812.59;5049876;28;20651;-67
2021/09/08 06:13:18;;;;;;;10.37;9.47;;;;;;;12.33;86.35;95799.78;5048781;28;20218;-66
2021/09/08 06:15:46;;;;;;;10.47;9.57;;;;;;;12.42;86.31;95805.75;5037219;28;20929;-67
2021/09/08 06:18:15;;;;;;;8.83;7.93;;;;;;;12.53;86.55;95802.59;5041942;28;20288;-67
2021/09/08 06:20:44;;;;;;;9.30;8.57;;;;;;;12.63;86.67;95802.28;5046219;28;20249;-67
2021/09/08 06:23:16;;;;;;;12.40;11.40;;;;;;;12.74;86.64;95805.19;5045391;28;20723;-67
2021/09/08 06:25:44;;;;;;;10.43;9.53;;;;;;;12.89;86.81;95806.91;5045571;28;20234;-67
2021/09/08 06:28:13;;;;;;;11.50;9.97;;;;;;;13.03;86.84;95798.03;5046226;28;20238;-67
2021/09/08 06:30:41;;;;;;;12.70;11.60;;;;;;;13.19;86.79;95802.19;5037537;28;20233;-67
2021/09/08 06:33:09;;;;;;;12.23;11.33;;;;;;;13.35;86.70;95797.41;5046695;28;20300;-67
2021/09/08 06:35:39;;;;;;;15.27;13.87;;;;;;;13.48;86.31;95803.78;5036264;28;20520;-68
2021/09/08 06:38:07;;;;;;;15.50;13.93;;;;;;;13.65;85.99;95797.13;5034329;28;20299;-67
2021/09/08 06:40:35;;;;;;;15.13;13.73;;;;;;;13.77;85.16;95795.50;5026711;28;20257;-66
2021/09/08 06:43:03;;;;;;;14.03;12.60;;;;;;;13.86;84.66;95791.66;5046032;28;20657;-67
2021/09/08 06:45:33;;;;;;;16.57;15.27;;;;;;;13.99;84.54;95795.34;5036089;28;20226;-67
2021/09/08 06:48:01;;;;;;;14.97;13.53;;;;;;;14.07;84.02;95785.34;5040423;28;20815;-68
2021/09/08 06:50:29;;;;;;;13.90;12.57;;;;;;;14.14;83.43;95791.50;5033876;28;20325;-66
2021/09/08 06:52:59;;;;;;;14.03;12.90;;;;;;;14.21;83.34;95791.50;5045874;28;20250;-67
2021/09/08 06:55:27;;;;;;;17.40;14.03;;;;;;;14.31;83.79;95778.66;5026324;28;20538;-67
2021/09/08 06:57:55;;;;;;;16.57;15.03;;;;;;;14.41;83.37;95781.69;5042075;28;20746;-67
2021/09/08 07:00:23;;;;;;;20.10;15.73;;;;;;;14.52;83.42;95778.47;5043585;28;20548;-67
2021/09/08 07:02:52;;;;;;;15.17;13.73;;;;;;;14.61;82.72;95780.91;5045527;28;20297;-67
2021/09/08 07:05:21;;;;;;;13.57;12.13;;;;;;;14.76;82.74;95774.34;5043925;28;20431;-67
2021/09/08 07:07:49;;;;;;;12.70;11.73;;;;;;;14.90;82.80;95774.31;5040017;28;20245;-67
2021/09/08 07:10:19;;;;;;;14.43;11.73;;;;;;;15.04;82.58;95770.63;5042987;28;20215;-67
2021/09/08 07:12:47;;;;;;;15.00;13.70;;;;;;;15.10;81.51;95774.28;5049407;28;20233;-67
2021/09/08 07:15:16;;;;;;;14.67;13.10;;;;;;;15.22;81.78;95769.94;5038030;28;20365;-67
2021/09/08 07:17:43;;;;;;;14.93;13.73;;;;;;;15.33;81.62;95764.78;5035875;28;20581;-67
2021/09/08 07:20:12;;;;;;;13.93;12.57;;;;;;;15.46;81.34;95763.13;5029344;28;20337;-67
2021/09/08 07:22:40;;;;;;;14.57;13.23;;;;;;;15.66;81.05;95763.88;5036878;28;20704;-67
2021/09/08 07:25:09;;;;;;;13.67;12.43;;;;;;;15.80;80.92;95759.25;5044309;28;20424;-66
2021/09/08 07:27:39;;;;;;;12.63;11.53;;;;;;;15.90;79.60;95763.09;5044751;28;20219;-67
2021/09/08 07:30:08;;;;;;;14.80;13.53;;;;;;;16.01;79.77;95766.94;5029747;28;20307;-67
2021/09/08 07:32:36;;;;;;;14.70;13.40;;;;;;;16.11;79.11;95767.28;5022186;28;20311;-67
2021/09/08 07:35:06;;;;;;;12.53;11.47;;;;;;;16.28;79.22;95756.09;5037855;28;20322;-66
2021/09/08 07:37:37;;;;;;;14.07;12.67;;;;;;;16.37;78.84;95752.94;5041668;28;20252;-67
2021/09/08 07:40:07;;;;;;;13.10;11.43;;;;;;;16.47;78.70;95760.44;5040142;28;20223;-66
2021/09/08 07:42:35;;;;;;;20.67;13.00;;;;;;;16.63;79.07;95762.53;5038877;28;20318;-66
2021/09/08 07:45:05;;;;;;;13.67;12.40;;;;;;;16.80;78.78;95759.34;5022420;28;20918;-68
2021/09/08 07:47:34;;;;;;;17.33;14.53;;;;;;;16.87;79.19;95762.75;5044210;28;20228;-67
2021/09/08 07:50:03;;;;;;;13.03;11.90;;;;;;;16.95;79.09;95765.16;5044192;28;20225;-67
2021/09/08 07:52:31;;;;;;;12.37;11.37;;;;;;;17.04;78.67;95766.50;5042757;28;20378;-67
2021/09/08 07:54:59;;;;;;;13.17;12.00;;;;;;;17.13;78.48;95765.16;5043761;28;20235;-67
2021/09/08 07:57:27;;;;;;;12.17;11.27;;;;;;;17.20;77.47;95760.56;5035476;28;20226;-66
2021/09/08 07:59:54;;;;;;;11.50;10.57;;;;;;;17.33;77.09;95757.75;5034202;28;21948;-67
2021/09/08 08:02:24;;;;;;;11.93;10.93;;;;;;;17.56;77.13;95765.06;5031830;28;20300;-67
2021/09/08 08:04:52;;;;;;;13.07;11.80;;;;;;;17.70;76.24;95760.38;5025326;28;20589;-67
2021/09/08 08:07:20;;;;;;;12.00;10.80;;;;;;;17.83;75.41;95765.56;5044565;28;20313;-66
2021/09/08 08:09:48;;;;;;;14.10;12.83;;;;;;;17.96;74.65;95758.41;5043070;28;20295;-67
2021/09/08 08:12:16;;;;;;;12.63;10.70;;;;;;;18.18;74.14;95759.50;5042706;28;20234;-67
2021/09/08 08:14:44;;;;;;;13.77;12.20;;;;;;;18.33;74.48;95753.72;5040741;28;20675;-68
2021/09/08 08:17:12;;;;;;;11.40;10.43;;;;;;;18.45;73.55;95750.00;5023603;28;20254;-66
2021/09/08 08:19:42;;;;;;;12.90;11.67;;;;;;;18.67;73.79;95760.19;5043029;28;20766;-68
2021/09/08 08:22:09;;;;;;;12.23;11.27;;;;;;;18.83;73.19;95754.13;5041372;28;20245;-68
2021/09/08 08:24:38;;;;;;;10.97;9.83;;;;;;;18.97;72.97;95750.19;5035524;28;20273;-67
2021/09/08 08:27:06;;;;;;;13.50;12.30;;;;;;;19.20;72.24;95760.06;5034682;28;20570;-67
2021/09/08 08:29:34;;;;;;;12.13;9.53;;;;;;;19.43;71.69;95748.47;5036427;28;20251;-67
2021/09/08 08:32:03;;;;;;;11.17;10.17;;;;;;;19.57;71.40;95749.88;5042440;28;20223;-68
2021/09/08 08:34:31;;;;;;;11.50;10.40;;;;;;;19.75;70.40;95748.88;5041377;28;20242;-67
2021/09/08 08:37:01;;;;;;;12.60;11.37;;;;;;;19.98;70.44;95750.63;5027585;28;20288;-67
2021/09/08 08:39:29;;;;;;;12.43;10.97;;;;;;;20.10;69.35;95746.00;5043563;28;20243;-67
2021/09/08 08:41:57;;;;;;;10.60;9.60;;;;;;;20.24;69.28;95743.84;5042792;28;20219;-66
2021/09/08 08:44:27;;;;;;;9.83;9.13;;;;;;;20.51;69.74;95741.38;5026767;28;20325;-67
2021/09/08 08:46:55;;;;;;;10.63;9.23;;;;;;;20.79;68.83;95745.00;5044104;28;20224;-68
2021/09/08 08:49:24;;;;;;;11.30;9.87;;;;;;;20.91;66.73;95737.66;5046104;28;20271;-68
2021/09/08 08:51:52;;;;;;;12.53;11.43;;;;;;;21.03;66.57;95749.13;5042609;28;20229;-67
2021/09/08 08:54:21;;;;;;;11.20;10.33;;;;;;;21.18;67.15;95748.50;5038434;28;20255;-67
2021/09/08 08:56:51;;;;;;;10.17;9.40;;;;;;;21.47;66.78;95747.31;5017530;28;20280;-68
2021/09/08 08:59:19;;;;;;;11.73;10.83;;;;;;;21.53;65.62;95740.94;5039863;28;20301;-68
2021/09/08 09:01:48;;;;;;;9.63;8.77;;;;;;;21.72;65.07;95743.31;5041969;28;20294;-67
2021/09/08 09:04:17;;;;;;;10.40;9.53;;;;;;;21.78;63.91;95748.47;5042892;28;25134;-67
2021/09/08 09:06:48;;;;;;;9.33;8.57;;;;;;;22.01;64.21;95742.00;5023159;28;20257;-67
2021/09/08 09:09:19;;;;;;;9.47;8.87;;;;;;;22.21;64.45;95737.91;5044018;28;20300;-67
2021/09/08 09:11:50;;;;;;;12.40;9.57;;;;;;;22.39;63.24;95732.97;5024684;28;20487;-67
2021/09/08 09:14:18;;;;;;;9.40;8.80;;;;;;;22.64;63.22;95734.25;5040407;28;20305;-68
2021/09/08 09:16:46;;;;;;;11.90;10.80;;;;;;;22.81;63.26;95729.53;5039262;28;20229;-68
2021/09/08 09:19:15;;;;;;;8.97;8.27;;;;;;;23.14;62.52;95727.59;5037426;28;20215;-68
2021/09/08 09:21:43;;;;;;;9.80;9.20;;;;;;;23.33;61.42;95731.47;5037391;28;20306;-68
2021/09/08 09:24:11;;;;;;;9.67;9.17;;;;;;;23.50;60.34;95721.31;5036167;28;20254;-68
2021/09/08 09:26:42;;;;;;;10.87;9.17;;;;;;;23.59;60.19;95723.47;5022562;28;20310;-67
2021/09/08 09:29:14;;;;;;;9.30;8.60;;;;;;;23.77;60.08;95720.31;5042073;28;20219;-68
2021/09/08 09:31:53;;;;;;;7.23;6.73;;;;;;;24.10;60.07;95719.06;5035238;28;20310;-68
2021/09/08 09:34:21;;;;;;;10.10;9.37;;;;;;;24.15;58.09;95719.09;5029198;28;20231;-68
2021/09/08 09:36:53;;;;;;;9.00;8.27;;;;;;;24.16;58.33;95717.19;5038416;28;20234;-67
2021/09/08 09:39:20;;;;;;;7.83;7.33;;;;;;;24.47;58.52;95710.75;5039794;28;20299;-68
2021/09/08 09:41:49;;;;;;;9.10;8.03;;;;;;;24.75;58.53;95720.19;5037895;28;20559;-68
2021/09/08 09:44:19;;;;;;;8.67;8.07;;;;;;;24.86;56.81;95718.28;5040866;28;20219;-68
2021/09/08 09:46:47;;;;;;;8.77;8.13;;;;;;;25.07;56.42;95713.69;5036210;28;20302;-68
2021/09/08 09:49:16;;;;;;;8.40;7.72;;;;;;;25.35;56.00;95712.25;5042021;28;20261;-68
2021/09/08 09:51:44;;;;;;;8.32;7.68;;;;;;;25.52;55.83;95701.94;5039977;28;20637;-66
2021/09/08 09:54:15;;;;;;;13.38;6.68;;;;;;;25.67;55.60;95701.84;5037983;28;20305;-67
2021/09/08 09:56:43;;;;;;;8.98;7.80;;;;;;;25.72;54.21;95695.63;5040983;28;20266;-68
2021/09/08 09:59:12;;;;;;;9.05;8.27;;;;;;;25.82;54.79;95689.38;5022864;28;20724;-68
2021/09/08 10:01:43;;;;;;;7.80;7.10;;;;;;;26.03;54.77;95686.25;5023206;28;20530;-68
2021/09/08 10:04:11;;;;;;;7.22;6.63;;;;;;;26.30;55.36;95685.78;5038380;28;20219;-68
2021/09/08 10:06:41;;;;;;;7.55;7.00;;;;;;;26.42;53.99;95688.13;5043964;28;20692;-68
2021/09/08 10:09:15;;;;;;;9.07;8.48;;;;;;;26.49;52.85;95677.00;5043735;28;20210;-68
2021/09/08 10:11:47;;;;;;;8.95;8.32;;;;;;;26.58;53.25;95680.72;5042934;28;20230;-67
2021/09/08 10:14:17;;;;;;;9.80;9.00;;;;;;;26.76;52.33;95671.88;5044122;28;20627;-67
2021/09/08 10:16:48;;;;;;;10.15;9.35;;;;;;;26.77;51.59;95673.47;5042320;28;20219;-68
2021/09/08 10:19:18;;;;;;;7.88;7.28;;;;;;;27.06;53.32;95667.25;5045154;28;20268;-68
2021/09/08 10:21:46;;;;;;;8.10;7.60;;;;;;;27.27;52.10;95662.44;5038299;28;20238;-68
2021/09/08 10:24:18;;;;;;;7.22;6.75;;;;;;;27.69;52.21;95661.63;5032659;28;20230;-69
2021/09/08 10:26:46;;;;;;;6.15;5.80;;;;;;;28.05;51.86;95660.00;5048996;28;20633;-68
2021/09/08 10:29:15;;;;;;;6.75;6.22;;;;;;;28.30;51.15;95655.34;5043316;28;20311;-68
2021/09/08 10:31:47;;;;;;;8.38;7.88;;;;;;;28.14;50.05;95656.63;5043491;28;20803;-68
2021/09/08 10:34:17;;;;;;;7.60;7.00;;;;;;;28.28;50.59;95652.09;5042593;28;20305;-68
2021/09/08 10:36:45;;;;;;;8.68;7.97;;;;;;;28.37;50.09;95644.91;5043048;28;20241;-67
2021/09/08 10:39:15;;;;;;;8.93;8.40;;;;;;;28.25;49.50;95645.31;5045763;28;20699;-68
2021/09/08 10:41:46;;;;;;;8.38;7.78;;;;;;;28.06;49.17;95642.63;5044061;28;20707;-67
2021/09/08 10:44:16;;;;;;;7.30;6.65;;;;;;;28.19;50.25;95643.00;5038680;28;20254;-67
2021/09/08 10:46:53;;;;;;;8.13;7.43;;;;;;;28.06;48.87;95633.69;5040029;28;20250;-69
2021/09/08 10:49:51;;;;;;;7.10;6.50;;;;;;;28.19;49.76;95634.88;5043030;28;20215;-68
2021/09/08 10:52:42;;;;;;;9.45;8.65;;;;;;;28.31;50.59;95629.81;5040243;28;20215;-68
2021/09/08 10:55:15;;;;;;;8.95;8.35;;;;;;;28.58;50.59;95626.34;5028785;28;20582;-68
2021/09/08 10:58:00;;;;;;;10.27;8.30;;;;;;;28.70;50.08;95625.88;5043765;28;20211;-68
2021/09/08 11:00:36;;;;;;;8.27;7.72;;;;;;;28.57;48.98;95628.25;5044116;28;20265;-68
2021/09/08 11:03:24;;;;;;;7.05;6.65;;;;;;;28.79;47.88;95615.91;5038544;28;20219;-69
2021/09/08 11:05:55;;;;;;;6.07;5.78;;;;;;;28.99;48.95;95612.06;5041858;28;20223;-67
2021/09/08 11:08:26;;;;;;;7.60;7.03;;;;;;;28.80;47.74;95610.22;5044424;28;20242;-69
2021/09/08 11:11:09;;;;;;;7.32;6.60;;;;;;;29.04;47.85;95609.22;5043914;28;20241;-67
2021/09/08 11:13:38;;;;;;;6.53;6.20;;;;;;;29.31;47.47;95605.69;5035259;28;20258;-68
2021/09/08 11:16:20;;;;;;;7.38;6.97;;;;;;;29.52;45.80;95608.78;5038652;28;20219;-67
2021/09/08 11:18:48;;;;;;;6.22;5.93;;;;;;;29.42;47.30;95604.34;5026332;28;20219;-68
2021/09/08 11:21:17;;;;;;;8.40;6.32;;;;;;;29.61;46.41;95599.59;5042435;28;20239;-68
2021/09/08 11:23:47;;;;;;;8.65;6.20;;;;;;;29.57;46.99;95605.97;5039813;28;20664;-67
2021/09/08 11:26:15;;;;;;;7.45;6.85;;;;;;;29.71;46.97;95596.66;5045896;28;20222;-68
2021/09/08 11:28:43;;;;;;;8.18;7.57;;;;;;;29.42;46.38;95599.72;5039968;28;20247;-68
2021/09/08 11:31:18;;;;;;;5.95;5.55;;;;;;;29.04;47.02;95598.34;5040752;28;20243;-68
2021/09/08 11:33:46;;;;;;;6.68;6.28;;;;;;;28.81;48.98;95600.16;5039496;28;20810;-68
2021/09/08 11:36:18;;;;;;;7.13;6.78;;;;;;;28.85;47.34;95593.00;5044834;28;20214;-68